sensor_id;sensor_type;location;lat;lon;timestamp;pressure;altitude;pressure_sealevel;temperature;humidity
77749;BME280;66938;52.084;5.228;2023-04-07T00:01:12;101595.0;;;9.88;80.39
77749;BME280;66938;52.084;5.228;2023-04-07T00:02:48;101590.0;;;9.85;80.27
77749;BME280;66938;52.084;5.228;2023-04-07T00:04:24;101594.0;;;9.9;80.22
77749;BME280;66938;52.084;5.228;2023-04-07T00:07:36;101595.0;;;9.85;80.24
77749;BME280;66938;52.084;5.228;2023-04-07T00:09:12;101592.0;;;9.88;80.09
77749;BME280;66938;52.084;5.228;2023-04-07T00:10:49;101603.0;;;9.83;80.25
77749;BME280;66938;52.084;5.228;2023-04-07T00:14:01;101601.0;;;9.83;79.97
77749;BME280;66938;52.084;5.228;2023-04-07T00:15:37;101597.0;;;9.81;80.11
77749;BME280;66938;52.084;5.228;2023-04-07T00:17:13;101597.0;;;9.81;80.11
77749;BME280;66938;52.084;5.228;2023-04-07T00:20:27;101602.0;;;9.81;80.08
77749;BME280;66938;52.084;5.228;2023-04-07T00:22:03;101605.0;;;9.84;79.97
77749;BME280;66938;52.084;5.228;2023-04-07T00:23:39;101607.0;;;9.81;80.14
77749;BME280;66938;52.084;5.228;2023-04-07T00:26:51;101612.0;;;9.73;80.3
77749;BME280;66938;52.084;5.228;2023-04-07T00:28:27;101611.0;;;9.78;80.02
77749;BME280;66938;52.084;5.228;2023-04-07T00:30:05;101609.0;;;9.75;79.97
77749;BME280;66938;52.084;5.228;2023-04-07T00:31:41;101609.0;;;9.73;79.95
77749;BME280;66938;52.084;5.228;2023-04-07T00:34:54;101609.0;;;9.69;79.97
77749;BME280;66938;52.084;5.228;2023-04-07T00:36:30;101610.0;;;9.64;80.12
77749;BME280;66938;52.084;5.228;2023-04-07T00:38:06;101609.0;;;9.72;79.97
77749;BME280;66938;52.084;5.228;2023-04-07T00:41:19;101612.0;;;9.73;79.98
77749;BME280;66938;52.084;5.228;2023-04-07T00:42:54;101613.0;;;9.75;79.92
77749;BME280;66938;52.084;5.228;2023-04-07T00:44:31;101608.0;;;9.69;80.23
77749;BME280;66938;52.084;5.228;2023-04-07T00:47:43;101610.0;;;9.71;80.08
77749;BME280;66938;52.084;5.228;2023-04-07T00:49:19;101610.0;;;9.64;80.3
77749;BME280;66938;52.084;5.228;2023-04-07T00:50:55;101610.0;;;9.61;80.38
77749;BME280;66938;52.084;5.228;2023-04-07T00:52:32;101616.0;;;9.64;80.3
77749;BME280;66938;52.084;5.228;2023-04-07T00:55:45;101618.0;;;9.59;80.41
77749;BME280;66938;52.084;5.228;2023-04-07T00:57:21;101616.0;;;9.64;80.5
77749;BME280;66938;52.084;5.228;2023-04-07T00:58:57;101613.0;;;9.6;80.36
77749;BME280;66938;52.084;5.228;2023-04-07T01:02:20;101612.0;;;9.65;80.33
77749;BME280;66938;52.084;5.228;2023-04-07T01:04:04;101613.0;;;9.69;80.25
77749;BME280;66938;52.084;5.228;2023-04-07T01:05:46;101609.0;;;9.6;80.41
77749;BME280;66938;52.084;5.228;2023-04-07T01:07:34;101609.0;;;9.65;80.27
77749;BME280;66938;52.084;5.228;2023-04-07T01:09:18;101616.0;;;9.64;80.17
77749;BME280;66938;52.084;5.228;2023-04-07T01:12:46;101615.0;;;9.6;80.14
77749;BME280;66938;52.084;5.228;2023-04-07T01:14:34;101612.0;;;9.65;80.11
77749;BME280;66938;52.084;5.228;2023-04-07T01:16:12;101611.0;;;9.67;79.99
77749;BME280;66938;52.084;5.228;2023-04-07T01:18:06;101610.0;;;9.66;79.89
77749;BME280;66938;52.084;5.228;2023-04-07T01:19:48;101607.0;;;9.6;79.86
77749;BME280;66938;52.084;5.228;2023-04-07T01:23:16;101611.0;;;9.6;79.98
77749;BME280;66938;52.084;5.228;2023-04-07T01:25:09;101610.0;;;9.58;80.03
77749;BME280;66938;52.084;5.228;2023-04-07T01:27:03;101609.0;;;9.64;79.92
77749;BME280;66938;52.084;5.228;2023-04-07T01:28:56;101615.0;;;9.66;80.05
77749;BME280;66938;52.084;5.228;2023-04-07T01:31:08;101616.0;;;9.67;79.99
77749;BME280;66938;52.084;5.228;2023-04-07T01:32:49;101613.0;;;9.73;79.83
77749;BME280;66938;52.084;5.228;2023-04-07T01:34:29;101618.0;;;9.75;79.89
77749;BME280;66938;52.084;5.228;2023-04-07T01:37:46;101617.0;;;9.76;79.58
77749;BME280;66938;52.084;5.228;2023-04-07T01:39:25;101615.0;;;9.67;80.05
77749;BME280;66938;52.084;5.228;2023-04-07T01:41:02;101619.0;;;9.69;79.78
77749;BME280;66938;52.084;5.228;2023-04-07T01:44:18;101622.0;;;9.72;79.58
77749;BME280;66938;52.084;5.228;2023-04-07T01:45:55;101623.0;;;9.63;79.95
77749;BME280;66938;52.084;5.228;2023-04-07T01:47:33;101624.0;;;9.66;79.63
77749;BME280;66938;52.084;5.228;2023-04-07T01:49:11;101624.0;;;9.57;79.83
77749;BME280;66938;52.084;5.228;2023-04-07T01:52:25;101624.0;;;9.59;79.74
77749;BME280;66938;52.084;5.228;2023-04-07T01:54:03;101622.0;;;9.6;79.86
77749;BME280;66938;52.084;5.228;2023-04-07T01:55:40;101621.0;;;9.71;79.61
77749;BME280;66938;52.084;5.228;2023-04-07T01:58:52;101623.0;;;9.72;79.61
77749;BME280;66938;52.084;5.228;2023-04-07T02:00:29;101619.0;;;9.73;79.52
77749;BME280;66938;52.084;5.228;2023-04-07T02:02:05;101615.0;;;9.76;79.37
77749;BME280;66938;52.084;5.228;2023-04-07T02:03:44;101619.0;;;9.73;79.34
77749;BME280;66938;52.084;5.228;2023-04-07T02:07:08;101619.0;;;9.73;79.33
77749;BME280;66938;52.084;5.228;2023-04-07T02:08:48;101623.0;;;9.71;79.5
77749;BME280;66938;52.084;5.228;2023-04-07T02:10:34;101619.0;;;9.69;79.17
77749;BME280;66938;52.084;5.228;2023-04-07T02:12:13;101615.0;;;9.64;79.44
77749;BME280;66938;52.084;5.228;2023-04-07T02:15:30;101619.0;;;9.64;79.45
77749;BME280;66938;52.084;5.228;2023-04-07T02:17:07;101617.0;;;9.71;79.45
77749;BME280;66938;52.084;5.228;2023-04-07T02:18:45;101612.0;;;9.73;79.31
77749;BME280;66938;52.084;5.228;2023-04-07T02:20:22;101612.0;;;9.63;79.67
77749;BME280;66938;52.084;5.228;2023-04-07T02:23:38;101612.0;;;9.55;79.58
77749;BME280;66938;52.084;5.228;2023-04-07T02:25:23;101615.0;;;9.64;79.38
77749;BME280;66938;52.084;5.228;2023-04-07T02:26:59;101616.0;;;9.67;79.41
77749;BME280;66938;52.084;5.228;2023-04-07T02:30:13;101616.0;;;9.58;79.55
77749;BME280;66938;52.084;5.228;2023-04-07T02:31:49;101614.0;;;9.66;79.52
77749;BME280;66938;52.084;5.228;2023-04-07T02:33:25;101615.0;;;9.66;79.33
77749;BME280;66938;52.084;5.228;2023-04-07T02:35:02;101615.0;;;9.73;79.16
77749;BME280;66938;52.084;5.228;2023-04-07T02:38:14;101611.0;;;9.67;79.22
77749;BME280;66938;52.084;5.228;2023-04-07T02:39:50;101614.0;;;9.66;79.41
77749;BME280;66938;52.084;5.228;2023-04-07T02:41:26;101614.0;;;9.73;79.27
77749;BME280;66938;52.084;5.228;2023-04-07T02:44:39;101615.0;;;9.68;79.3
77749;BME280;66938;52.084;5.228;2023-04-07T02:46:14;101616.0;;;9.63;79.23
77749;BME280;66938;52.084;5.228;2023-04-07T02:47:50;101617.0;;;9.64;79.22
77749;BME280;66938;52.084;5.228;2023-04-07T02:51:03;101621.0;;;9.63;79.05
77749;BME280;66938;52.084;5.228;2023-04-07T02:52:39;101621.0;;;9.71;79.08
77749;BME280;66938;52.084;5.228;2023-04-07T02:54:15;101626.0;;;9.72;79.03
77749;BME280;66938;52.084;5.228;2023-04-07T02:57:27;101623.0;;;9.67;79.23
77749;BME280;66938;52.084;5.228;2023-04-07T02:59:03;101618.0;;;9.63;79.22
77749;BME280;66938;52.084;5.228;2023-04-07T03:00:39;101621.0;;;9.56;79.25
77749;BME280;66938;52.084;5.228;2023-04-07T03:02:16;101626.0;;;9.57;79.16
77749;BME280;66938;52.084;5.228;2023-04-07T03:05:28;101621.0;;;9.64;79.14
77749;BME280;66938;52.084;5.228;2023-04-07T03:07:04;101622.0;;;9.66;79.17
77749;BME280;66938;52.084;5.228;2023-04-07T03:08:40;101624.0;;;9.58;79.13
77749;BME280;66938;52.084;5.228;2023-04-07T03:11:53;101624.0;;;9.59;79.08
77749;BME280;66938;52.084;5.228;2023-04-07T03:13:28;101627.0;;;9.66;78.94
77749;BME280;66938;52.084;5.228;2023-04-07T03:15:06;101626.0;;;9.67;78.92
77749;BME280;66938;52.084;5.228;2023-04-07T03:18:18;101622.0;;;9.69;79.05
77749;BME280;66938;52.084;5.228;2023-04-07T03:19:54;101624.0;;;9.72;79.05
77749;BME280;66938;52.084;5.228;2023-04-07T03:21:30;101621.0;;;9.71;79.11
77749;BME280;66938;52.084;5.228;2023-04-07T03:23:07;101619.0;;;9.63;78.98
77749;BME280;66938;52.084;5.228;2023-04-07T03:26:19;101619.0;;;9.69;79.05
77749;BME280;66938;52.084;5.228;2023-04-07T03:27:55;101624.0;;;9.72;78.92
77749;BME280;66938;52.084;5.228;2023-04-07T03:29:31;101620.0;;;9.65;78.91
77749;BME280;66938;52.084;5.228;2023-04-07T03:32:43;101623.0;;;9.72;78.72
77749;BME280;66938;52.084;5.228;2023-04-07T03:34:19;101622.0;;;9.75;78.67
77749;BME280;66938;52.084;5.228;2023-04-07T03:35:55;101621.0;;;9.78;78.55
77749;BME280;66938;52.084;5.228;2023-04-07T03:39:08;101621.0;;;9.74;78.7
77749;BME280;66938;52.084;5.228;2023-04-07T03:40:44;101624.0;;;9.76;78.53
77749;BME280;66938;52.084;5.228;2023-04-07T03:42:20;101626.0;;;9.73;78.81
77749;BME280;66938;52.084;5.228;2023-04-07T03:45:32;101625.0;;;9.69;78.91
77749;BME280;66938;52.084;5.228;2023-04-07T03:47:09;101625.0;;;9.71;78.94
77749;BME280;66938;52.084;5.228;2023-04-07T03:48:45;101630.0;;;9.75;78.72
77749;BME280;66938;52.084;5.228;2023-04-07T03:50:21;101628.0;;;9.72;78.88
77749;BME280;66938;52.084;5.228;2023-04-07T03:53:33;101631.0;;;9.73;78.86
77749;BME280;66938;52.084;5.228;2023-04-07T03:55:09;101625.0;;;9.65;79.08
77749;BME280;66938;52.084;5.228;2023-04-07T03:56:45;101635.0;;;9.64;79.16
77749;BME280;66938;52.084;5.228;2023-04-07T03:59:58;101637.0;;;9.72;78.87
77749;BME280;66938;52.084;5.228;2023-04-07T04:01:34;101634.0;;;9.64;79.11
77749;BME280;66938;52.084;5.228;2023-04-07T04:03:10;101639.0;;;9.57;78.84
77749;BME280;66938;52.084;5.228;2023-04-07T04:06:22;101639.0;;;9.63;79.05
77749;BME280;66938;52.084;5.228;2023-04-07T04:07:58;101636.0;;;9.59;78.98
77749;BME280;66938;52.084;5.228;2023-04-07T04:09:34;101638.0;;;9.56;78.95
77749;BME280;66938;52.084;5.228;2023-04-07T04:12:47;101637.0;;;9.67;78.61
77749;BME280;66938;52.084;5.228;2023-04-07T04:14:24;101636.0;;;9.66;78.75
77749;BME280;66938;52.084;5.228;2023-04-07T04:16:00;101639.0;;;9.59;78.33
77749;BME280;66938;52.084;5.228;2023-04-07T04:17:36;101641.0;;;9.64;78.33
77749;BME280;66938;52.084;5.228;2023-04-07T04:20:48;101639.0;;;9.74;78.44
77749;BME280;66938;52.084;5.228;2023-04-07T04:22:24;101642.0;;;9.77;78.27
77749;BME280;66938;52.084;5.228;2023-04-07T04:24:01;101640.0;;;9.75;78.33
77749;BME280;66938;52.084;5.228;2023-04-07T04:27:14;101645.0;;;9.71;78.3
77749;BME280;66938;52.084;5.228;2023-04-07T04:28:51;101639.0;;;9.74;78.11
77749;BME280;66938;52.084;5.228;2023-04-07T04:30:27;101642.0;;;9.68;78.62
77749;BME280;66938;52.084;5.228;2023-04-07T04:33:40;101646.0;;;9.69;78.27
77749;BME280;66938;52.084;5.228;2023-04-07T04:35:17;101648.0;;;9.66;78.33
77749;BME280;66938;52.084;5.228;2023-04-07T04:36:54;101649.0;;;9.66;78.27
77749;BME280;66938;52.084;5.228;2023-04-07T04:40:07;101650.0;;;9.69;78.33
77749;BME280;66938;52.084;5.228;2023-04-07T04:41:43;101649.0;;;9.66;78.3
77749;BME280;66938;52.084;5.228;2023-04-07T04:43:21;101655.0;;;9.65;78.47
77749;BME280;66938;52.084;5.228;2023-04-07T04:44:57;101663.0;;;9.59;78.48
77749;BME280;66938;52.084;5.228;2023-04-07T04:48:09;101667.0;;;9.64;78.34
77749;BME280;66938;52.084;5.228;2023-04-07T04:49:46;101670.0;;;9.67;78.27
77749;BME280;66938;52.084;5.228;2023-04-07T04:51:23;101669.0;;;9.69;78.33
77749;BME280;66938;52.084;5.228;2023-04-07T04:56:11;101677.0;;;9.65;78.06
77749;BME280;66938;52.084;5.228;2023-04-07T04:57:47;101678.0;;;9.66;77.66
77749;BME280;66938;52.084;5.228;2023-04-07T04:59:24;101680.0;;;9.71;77.37
77749;BME280;66938;52.084;5.228;2023-04-07T05:02:36;101680.0;;;9.59;77.27
77749;BME280;66938;52.084;5.228;2023-04-07T05:04:13;101683.0;;;9.65;77.34
77749;BME280;66938;52.084;5.228;2023-04-07T05:05:51;101683.0;;;9.73;77.09
77749;BME280;66938;52.084;5.228;2023-04-07T05:09:03;101683.0;;;9.65;77.52
77749;BME280;66938;52.084;5.228;2023-04-07T05:10:41;101690.0;;;9.72;77.61
77749;BME280;66938;52.084;5.228;2023-04-07T05:12:17;101685.0;;;9.56;77.47
77749;BME280;66938;52.084;5.228;2023-04-07T05:15:31;101686.0;;;9.61;77.61
77749;BME280;66938;52.084;5.228;2023-04-07T05:17:08;101684.0;;;9.65;77.69
77749;BME280;66938;52.084;5.228;2023-04-07T05:18:45;101684.0;;;9.67;77.73
77749;BME280;66938;52.084;5.228;2023-04-07T05:20:21;101684.0;;;9.71;77.61
77749;BME280;66938;52.084;5.228;2023-04-07T05:23:34;101685.0;;;9.66;78.05
77749;BME280;66938;52.084;5.228;2023-04-07T05:25:11;101690.0;;;9.66;78.0
77749;BME280;66938;52.084;5.228;2023-04-07T05:26:48;101691.0;;;9.57;77.94
77749;BME280;66938;52.084;5.228;2023-04-07T05:31:36;101689.0;;;9.61;77.91
77749;BME280;66938;52.084;5.228;2023-04-07T05:33:13;101692.0;;;9.59;78.05
77749;BME280;66938;52.084;5.228;2023-04-07T05:36:26;101695.0;;;9.6;77.55
77749;BME280;66938;52.084;5.228;2023-04-07T05:38:02;101696.0;;;9.65;77.47
77749;BME280;66938;52.084;5.228;2023-04-07T05:39:40;101698.0;;;9.59;77.67
77749;BME280;66938;52.084;5.228;2023-04-07T05:41:16;101701.0;;;9.59;77.73
77749;BME280;66938;52.084;5.228;2023-04-07T05:44:29;101702.0;;;9.63;77.72
77749;BME280;66938;52.084;5.228;2023-04-07T05:46:06;101701.0;;;9.59;77.89
77749;BME280;66938;52.084;5.228;2023-04-07T05:47:41;101700.0;;;9.66;77.66
77749;BME280;66938;52.084;5.228;2023-04-07T05:50:55;101705.0;;;9.64;77.86
77749;BME280;66938;52.084;5.228;2023-04-07T05:52:32;101705.0;;;9.64;77.67
77749;BME280;66938;52.084;5.228;2023-04-07T05:54:09;101701.0;;;9.65;77.69
77749;BME280;66938;52.084;5.228;2023-04-07T05:58:58;101707.0;;;9.56;78.0
77749;BME280;66938;52.084;5.228;2023-04-07T06:00:35;101708.0;;;9.63;77.59
77749;BME280;66938;52.084;5.228;2023-04-07T06:02:12;101711.0;;;9.65;77.86
77749;BME280;66938;52.084;5.228;2023-04-07T06:05:25;101716.0;;;9.58;78.17
77749;BME280;66938;52.084;5.228;2023-04-07T06:07:01;101712.0;;;9.57;78.0
77749;BME280;66938;52.084;5.228;2023-04-07T06:08:38;101715.0;;;9.6;77.89
77749;BME280;66938;52.084;5.228;2023-04-07T06:11:50;101717.0;;;9.6;77.97
77749;BME280;66938;52.084;5.228;2023-04-07T06:13:26;101724.0;;;9.58;77.95
77749;BME280;66938;52.084;5.228;2023-04-07T06:15:03;101725.0;;;9.63;77.92
77749;BME280;66938;52.084;5.228;2023-04-07T06:18:16;101727.0;;;9.58;78.37
77749;BME280;66938;52.084;5.228;2023-04-07T06:19:51;101723.0;;;9.65;78.08
77749;BME280;66938;52.084;5.228;2023-04-07T06:21:27;101720.0;;;9.61;78.41
77749;BME280;66938;52.084;5.228;2023-04-07T06:23:03;101722.0;;;9.67;78.38
77749;BME280;66938;52.084;5.228;2023-04-07T06:26:16;101726.0;;;9.6;78.19
77749;BME280;66938;52.084;5.228;2023-04-07T06:27:52;101725.0;;;9.66;78.19
77749;BME280;66938;52.084;5.228;2023-04-07T06:29:29;101730.0;;;9.64;77.72
77749;BME280;66938;52.084;5.228;2023-04-07T06:32:43;101730.0;;;9.68;77.8
77749;BME280;66938;52.084;5.228;2023-04-07T06:34:19;101734.0;;;9.76;77.95
77749;BME280;66938;52.084;5.228;2023-04-07T06:35:55;101730.0;;;9.76;78.03
77749;BME280;66938;52.084;5.228;2023-04-07T06:39:08;101734.0;;;9.74;77.44
77749;BME280;66938;52.084;5.228;2023-04-07T06:40:44;101735.0;;;9.73;77.74
77749;BME280;66938;52.084;5.228;2023-04-07T06:42:20;101737.0;;;9.8;77.69
77749;BME280;66938;52.084;5.228;2023-04-07T06:43:56;101739.0;;;9.75;77.87
77749;BME280;66938;52.084;5.228;2023-04-07T06:47:09;101739.0;;;9.64;77.36
77749;BME280;66938;52.084;5.228;2023-04-07T06:48:45;101738.0;;;9.68;77.69
77749;BME280;66938;52.084;5.228;2023-04-07T06:50:21;101743.0;;;9.71;77.44
77749;BME280;66938;52.084;5.228;2023-04-07T06:53:33;101746.0;;;9.72;77.28
77749;BME280;66938;52.084;5.228;2023-04-07T06:55:09;101747.0;;;9.76;77.38
77749;BME280;66938;52.084;5.228;2023-04-07T06:56:45;101747.0;;;9.78;77.38
77749;BME280;66938;52.084;5.228;2023-04-07T06:59:57;101751.0;;;9.74;77.42
77749;BME280;66938;52.084;5.228;2023-04-07T07:01:33;101756.0;;;9.8;77.61
77749;BME280;66938;52.084;5.228;2023-04-07T07:03:09;101759.0;;;9.83;77.44
77749;BME280;66938;52.084;5.228;2023-04-07T07:06:22;101761.0;;;9.81;77.52
77749;BME280;66938;52.084;5.228;2023-04-07T07:07:58;101764.0;;;9.84;77.74
77749;BME280;66938;52.084;5.228;2023-04-07T07:09:34;101758.0;;;9.89;77.47
77749;BME280;66938;52.084;5.228;2023-04-07T07:11:10;101763.0;;;9.9;77.61
77749;BME280;66938;52.084;5.228;2023-04-07T07:14:22;101763.0;;;9.93;77.19
77749;BME280;66938;52.084;5.228;2023-04-07T07:15:59;101767.0;;;9.92;76.78
77749;BME280;66938;52.084;5.228;2023-04-07T07:17:35;101767.0;;;9.89;76.55
77749;BME280;66938;52.084;5.228;2023-04-07T07:20:47;101764.0;;;9.89;77.23
77749;BME280;66938;52.084;5.228;2023-04-07T07:22:23;101771.0;;;9.96;77.52
77749;BME280;66938;52.084;5.228;2023-04-07T07:23:59;101772.0;;;9.98;77.36
77749;BME280;66938;52.084;5.228;2023-04-07T07:27:12;101777.0;;;9.93;77.25
77749;BME280;66938;52.084;5.228;2023-04-07T07:28:48;101781.0;;;9.98;77.0
77749;BME280;66938;52.084;5.228;2023-04-07T07:30:24;101780.0;;;9.84;76.95
77749;BME280;66938;52.084;5.228;2023-04-07T07:33:36;101784.0;;;9.9;77.24
77749;BME280;66938;52.084;5.228;2023-04-07T07:35:12;101788.0;;;9.93;77.69
77749;BME280;66938;52.084;5.228;2023-04-07T07:36:49;101789.0;;;9.91;77.22
77749;BME280;66938;52.084;5.228;2023-04-07T07:38:25;101789.0;;;9.96;77.33
77749;BME280;66938;52.084;5.228;2023-04-07T07:41:38;101788.0;;;10.01;77.02
77749;BME280;66938;52.084;5.228;2023-04-07T07:43:14;101790.0;;;10.06;77.28
77749;BME280;66938;52.084;5.228;2023-04-07T07:44:50;101793.0;;;10.14;77.23
77749;BME280;66938;52.084;5.228;2023-04-07T07:48:02;101794.0;;;10.11;77.59
77749;BME280;66938;52.084;5.228;2023-04-07T07:49:39;101795.0;;;10.17;76.69
77749;BME280;66938;52.084;5.228;2023-04-07T07:51:15;101795.0;;;10.26;76.66
77749;BME280;66938;52.084;5.228;2023-04-07T07:54:27;101795.0;;;10.16;76.49
77749;BME280;66938;52.084;5.228;2023-04-07T07:56:03;101800.0;;;10.23;75.87
77749;BME280;66938;52.084;5.228;2023-04-07T07:57:39;101799.0;;;10.1;76.53
77749;BME280;66938;52.084;5.228;2023-04-07T07:59:16;101805.0;;;10.19;76.03
77749;BME280;66938;52.084;5.228;2023-04-07T08:02:28;101806.0;;;10.17;75.95
77749;BME280;66938;52.084;5.228;2023-04-07T08:04:04;101810.0;;;10.11;76.3
77749;BME280;66938;52.084;5.228;2023-04-07T08:05:40;101810.0;;;10.15;76.22
77749;BME280;66938;52.084;5.228;2023-04-07T08:08:54;101811.0;;;10.17;76.14
77749;BME280;66938;52.084;5.228;2023-04-07T08:10:30;101812.0;;;10.14;76.02
77749;BME280;66938;52.084;5.228;2023-04-07T08:12:06;101815.0;;;10.14;76.0
77749;BME280;66938;52.084;5.228;2023-04-07T08:15:18;101816.0;;;10.08;76.41
77749;BME280;66938;52.084;5.228;2023-04-07T08:16:54;101822.0;;;10.11;76.05
77749;BME280;66938;52.084;5.228;2023-04-07T08:18:30;101830.0;;;10.07;76.2
77749;BME280;66938;52.084;5.228;2023-04-07T08:21:44;101824.0;;;10.11;76.08
77749;BME280;66938;52.084;5.228;2023-04-07T08:23:21;101830.0;;;10.13;75.63
77749;BME280;66938;52.084;5.228;2023-04-07T08:24:57;101825.0;;;10.11;76.41
77749;BME280;66938;52.084;5.228;2023-04-07T08:26:33;101828.0;;;10.13;76.41
77749;BME280;66938;52.084;5.228;2023-04-07T08:29:50;101834.0;;;10.13;75.75
77749;BME280;66938;52.084;5.228;2023-04-07T08:31:32;101833.0;;;10.08;74.45
77749;BME280;66938;52.084;5.228;2023-04-07T08:33:09;101833.0;;;10.13;75.06
77749;BME280;66938;52.084;5.228;2023-04-07T08:36:21;101833.0;;;10.14;74.97
77749;BME280;66938;52.084;5.228;2023-04-07T08:37:57;101832.0;;;10.06;74.28
77749;BME280;66938;52.084;5.228;2023-04-07T08:39:33;101835.0;;;10.08;73.2
77749;BME280;66938;52.084;5.228;2023-04-07T08:41:11;101837.0;;;10.03;73.02
77749;BME280;66938;52.084;5.228;2023-04-07T08:44:24;101843.0;;;10.02;73.36
77749;BME280;66938;52.084;5.228;2023-04-07T08:46:03;101843.0;;;10.09;73.66
77749;BME280;66938;52.084;5.228;2023-04-07T08:47:41;101846.0;;;10.15;74.88
77749;BME280;66938;52.084;5.228;2023-04-07T08:50:57;101844.0;;;10.16;73.66
77749;BME280;66938;52.084;5.228;2023-04-07T08:52:39;101842.0;;;10.25;73.22
77749;BME280;66938;52.084;5.228;2023-04-07T08:54:18;101847.0;;;10.23;73.74
77749;BME280;66938;52.084;5.228;2023-04-07T08:55:55;101849.0;;;10.33;72.98
77749;BME280;66938;52.084;5.228;2023-04-07T08:59:10;101852.0;;;10.36;72.33
77749;BME280;66938;52.084;5.228;2023-04-07T09:00:49;101853.0;;;10.44;72.94
77749;BME280;66938;52.084;5.228;2023-04-07T09:02:26;101851.0;;;10.44;72.61
77749;BME280;66938;52.084;5.228;2023-04-07T09:05:40;101847.0;;;10.48;71.88
77749;BME280;66938;52.084;5.228;2023-04-07T09:07:19;101855.0;;;10.45;71.77
77749;BME280;66938;52.084;5.228;2023-04-07T09:08:55;101855.0;;;10.45;70.45
77749;BME280;66938;52.084;5.228;2023-04-07T09:10:31;101859.0;;;10.47;71.02
77749;BME280;66938;52.084;5.228;2023-04-07T09:13:44;101867.0;;;10.52;71.55
77749;BME280;66938;52.084;5.228;2023-04-07T09:15:20;101864.0;;;10.51;71.74
77749;BME280;66938;52.084;5.228;2023-04-07T09:16:57;101872.0;;;10.42;70.56
77749;BME280;66938;52.084;5.228;2023-04-07T09:20:10;101867.0;;;10.51;70.99
77749;BME280;66938;52.084;5.228;2023-04-07T09:21:47;101863.0;;;10.53;70.48
77749;BME280;66938;52.084;5.228;2023-04-07T09:23:27;101869.0;;;10.52;69.95
77749;BME280;66938;52.084;5.228;2023-04-07T09:25:12;101867.0;;;10.54;70.69
77749;BME280;66938;52.084;5.228;2023-04-07T09:28:45;101866.0;;;10.64;71.11
77749;BME280;66938;52.084;5.228;2023-04-07T09:30:23;101860.0;;;10.68;70.44
77749;BME280;66938;52.084;5.228;2023-04-07T09:31:59;101868.0;;;10.76;70.47
77749;BME280;66938;52.084;5.228;2023-04-07T09:33:36;101866.0;;;10.82;69.91
77749;BME280;66938;52.084;5.228;2023-04-07T09:36:48;101867.0;;;10.87;69.98
77749;BME280;66938;52.084;5.228;2023-04-07T09:38:32;101867.0;;;10.98;69.94
77749;BME280;66938;52.084;5.228;2023-04-07T09:40:09;101870.0;;;11.07;70.17
77749;BME280;66938;52.084;5.228;2023-04-07T09:41:45;101871.0;;;11.16;69.73
77749;BME280;66938;52.084;5.228;2023-04-07T09:44:58;101874.0;;;11.13;68.81
77749;BME280;66938;52.084;5.228;2023-04-07T09:46:34;101874.0;;;11.14;68.39
77749;BME280;66938;52.084;5.228;2023-04-07T09:48:18;101874.0;;;11.11;69.3
77749;BME280;66938;52.084;5.228;2023-04-07T09:51:32;101880.0;;;11.13;69.47
77749;BME280;66938;52.084;5.228;2023-04-07T09:53:08;101883.0;;;11.14;68.75
77749;BME280;66938;52.084;5.228;2023-04-07T09:54:45;101882.0;;;11.08;68.58
77749;BME280;66938;52.084;5.228;2023-04-07T09:56:23;101884.0;;;11.18;69.69
77749;BME280;66938;52.084;5.228;2023-04-07T09:59:40;101883.0;;;11.13;69.05
77749;BME280;66938;52.084;5.228;2023-04-07T10:01:17;101882.0;;;11.15;69.69
77749;BME280;66938;52.084;5.228;2023-04-07T10:02:53;101886.0;;;11.12;68.58
77749;BME280;66938;52.084;5.228;2023-04-07T10:06:06;101887.0;;;11.12;69.33
77749;BME280;66938;52.084;5.228;2023-04-07T10:07:43;101886.0;;;11.06;70.27
77749;BME280;66938;52.084;5.228;2023-04-07T10:09:19;101889.0;;;10.99;69.0
77749;BME280;66938;52.084;5.228;2023-04-07T10:12:33;101890.0;;;11.0;69.33
77749;BME280;66938;52.084;5.228;2023-04-07T10:14:10;101888.0;;;10.96;69.22
77749;BME280;66938;52.084;5.228;2023-04-07T10:15:47;101888.0;;;10.94;69.53
77749;BME280;66938;52.084;5.228;2023-04-07T10:17:24;101893.0;;;10.96;69.24
77749;BME280;66938;52.084;5.228;2023-04-07T10:20:39;101889.0;;;10.86;70.11
77749;BME280;66938;52.084;5.228;2023-04-07T10:22:16;101894.0;;;11.07;70.98
77749;BME280;66938;52.084;5.228;2023-04-07T10:23:58;101893.0;;;11.13;70.03
77749;BME280;66938;52.084;5.228;2023-04-07T10:25:41;101891.0;;;11.21;69.27
77749;BME280;66938;52.084;5.228;2023-04-07T10:29:07;101894.0;;;11.24;69.14
77749;BME280;66938;52.084;5.228;2023-04-07T10:30:46;101893.0;;;11.25;68.44
77749;BME280;66938;52.084;5.228;2023-04-07T10:32:23;101901.0;;;11.29;68.66
77749;BME280;66938;52.084;5.228;2023-04-07T10:36:07;101900.0;;;11.29;68.91
77749;BME280;66938;52.084;5.228;2023-04-07T10:38:09;101903.0;;;11.3;69.05
77749;BME280;66938;52.084;5.228;2023-04-07T10:39:46;101903.0;;;11.31;69.17
77749;BME280;66938;52.084;5.228;2023-04-07T10:41:31;101912.0;;;11.4;68.36
77749;BME280;66938;52.084;5.228;2023-04-07T10:43:07;101909.0;;;11.36;67.55
77749;BME280;66938;52.084;5.228;2023-04-07T10:44:46;101910.0;;;11.32;68.61
77749;BME280;66938;52.084;5.228;2023-04-07T10:48:09;101910.0;;;11.31;68.44
77749;BME280;66938;52.084;5.228;2023-04-07T10:50:24;101910.0;;;11.25;68.34
77749;BME280;66938;52.084;5.228;2023-04-07T10:52:31;101911.0;;;11.18;68.72
77749;BME280;66938;52.084;5.228;2023-04-07T10:54:16;101921.0;;;11.15;68.95
77749;BME280;66938;52.084;5.228;2023-04-07T10:55:53;101924.0;;;11.15;69.03
77749;BME280;66938;52.084;5.228;2023-04-07T10:57:30;101922.0;;;11.18;68.97
77749;BME280;66938;52.084;5.228;2023-04-07T11:01:21;101926.0;;;11.2;69.36
77749;BME280;66938;52.084;5.228;2023-04-07T11:03:09;101924.0;;;11.18;68.86
77749;BME280;66938;52.084;5.228;2023-04-07T11:04:46;101924.0;;;11.18;69.69
77749;BME280;66938;52.084;5.228;2023-04-07T11:06:23;101922.0;;;11.21;68.34
77749;BME280;66938;52.084;5.228;2023-04-07T11:07:59;101920.0;;;11.2;69.02
77749;BME280;66938;52.084;5.228;2023-04-07T11:09:35;101918.0;;;11.18;69.0
77749;BME280;66938;52.084;5.228;2023-04-07T11:12:59;101924.0;;;11.16;68.19
77749;BME280;66938;52.084;5.228;2023-04-07T11:14:42;101926.0;;;11.22;68.47
77749;BME280;66938;52.084;5.228;2023-04-07T11:16:34;101930.0;;;11.14;68.88
77749;BME280;66938;52.084;5.228;2023-04-07T11:18:13;101931.0;;;11.18;68.98